Time;durP1;ratioP1;P1;durP2;ratioP2;P2;SDS_P1;SDS_P2;PMS_P1;PMS_P2;Temp;Humidity;BMP_temperature;BMP_pressure;BME280_temperature;BME280_humidity;BME280_pressure;Samples;Min_cycle;Max_cycle;Signal;HPM_P1;HPM_P2
2022/10/29 00:01:54;;;;;;;;;;;17.00;99.90;;;;;;4994354;28;19944;-75
2022/10/29 00:04:19;;;;;;;;;;;17.00;99.90;;;;;;4994563;28;19964;-75
2022/10/29 00:06:46;;;;;;;;;;;16.90;99.90;;;;;;4994159;28;20313;-74
2022/10/29 00:09:12;;;;;;;;;;;16.90;99.90;;;;;;4994225;28;19913;-74
2022/10/29 00:11:37;;;;;;;;;;;16.90;99.90;;;;;;4994205;28;19906;-74
2022/10/29 00:14:03;;;;;;;;;;;16.90;99.90;;;;;;4976677;28;19905;-75
2022/10/29 00:16:33;;;;;;;;;;;16.90;99.90;;;;;;4994135;28;19905;-74
2022/10/29 00:18:58;;;;;;;;;;;16.90;99.90;;;;;;4993983;28;19921;-75
2022/10/29 00:21:24;;;;;;;;;;;16.80;99.90;;;;;;4994117;28;19906;-74
2022/10/29 00:23:50;;;;;;;;;;;16.80;99.90;;;;;;4993972;28;19910;-74
2022/10/29 00:26:16;;;;;;;;;;;16.80;99.90;;;;;;4993702;28;19929;-75
2022/10/29 00:28:42;;;;;;;;;;;16.80;99.90;;;;;;4994072;28;19909;-74
2022/10/29 00:31:12;;;;;;;;;;;16.70;99.90;;;;;;4995100;28;19960;-73
2022/10/29 00:33:38;;;;;;;;;;;16.70;99.90;;;;;;4994037;28;19928;-74
2022/10/29 00:36:05;;;;;;;;;;;16.70;99.90;;;;;;4993977;28;20362;-74
2022/10/29 00:38:31;;;;;;;;;;;16.70;99.90;;;;;;4994191;28;20082;-74
2022/10/29 00:40:57;;;;;;;;;;;16.70;99.90;;;;;;4994259;28;19913;-74
2022/10/29 00:43:24;;;;;;;;;;;16.70;99.90;;;;;;4993900;28;20282;-74
2022/10/29 00:45:52;;;;;;;;;;;16.60;99.90;;;;;;4995793;28;20366;-75
2022/10/29 00:48:18;;;;;;;;;;;16.70;99.90;;;;;;4997025;28;20396;-76
2022/10/29 00:50:45;;;;;;;;;;;16.70;99.90;;;;;;4979628;28;19905;-76
2022/10/29 00:53:11;;;;;;;;;;;16.70;99.90;;;;;;4994636;28;20000;-75
2022/10/29 00:55:36;;;;;;;;;;;16.70;99.90;;;;;;4993808;28;19960;-76
2022/10/29 00:58:02;;;;;;;;;;;16.70;99.90;;;;;;4994062;28;20360;-76
2022/10/29 01:00:27;;;;;;;;;;;16.70;99.90;;;;;;4993777;28;19905;-75
2022/10/29 01:02:53;;;;;;;;;;;16.70;99.90;;;;;;4994041;28;20327;-75
2022/10/29 01:05:20;;;;;;;;;;;16.80;99.90;;;;;;4993643;28;19916;-75
2022/10/29 01:07:46;;;;;;;;;;;16.80;99.90;;;;;;4993708;28;19910;-75
2022/10/29 01:10:12;;;;;;;;;;;16.80;99.90;;;;;;4996784;28;19912;-76
2022/10/29 01:12:43;;;;;;;;;;;16.90;99.90;;;;;;4997137;28;19905;-76
2022/10/29 01:15:19;;;;;;;;;;;16.90;99.90;;;;;;4997108;28;19928;-75
2022/10/29 01:18:03;;;;;;;;;;;16.90;99.90;;;;;;4997375;28;19921;-76
2022/10/29 01:20:44;;;;;;;;;;;16.90;99.90;;;;;;4997274;28;19905;-76
2022/10/29 01:23:27;;;;;;;;;;;17.00;99.90;;;;;;4997014;28;20349;-77
2022/10/29 01:25:56;;;;;;;;;;;17.00;99.90;;;;;;4996713;28;20370;-75
2022/10/29 01:28:21;;;;;;;;;;;17.00;99.90;;;;;;4996846;28;19974;-74
2022/10/29 01:30:53;;;;;;;;;;;17.00;99.90;;;;;;4996852;28;19913;-74
2022/10/29 01:33:24;;;;;;;;;;;17.10;99.90;;;;;;4997553;28;20355;-74
2022/10/29 01:36:01;;;;;;;;;;;17.10;99.90;;;;;;4996702;28;19906;-76
2022/10/29 01:38:33;;;;;;;;;;;17.10;99.90;;;;;;4996700;28;20284;-74
2022/10/29 01:41:01;;;;;;;;;;;17.20;99.90;;;;;;4996934;28;19906;-75
2022/10/29 01:43:32;;;;;;;;;;;17.20;99.90;;;;;;4979145;28;19906;-74
2022/10/29 01:46:00;;;;;;;;;;;17.20;99.90;;;;;;4997046;28;19955;-75
2022/10/29 01:48:31;;;;;;;;;;;17.20;99.90;;;;;;4996521;28;20280;-75
2022/10/29 01:50:58;;;;;;;;;;;17.20;99.90;;;;;;4996826;28;19909;-77
2022/10/29 01:53:24;;;;;;;;;;;17.30;99.90;;;;;;4996677;28;19992;-75
2022/10/29 01:55:50;;;;;;;;;;;17.30;99.90;;;;;;4996915;28;19964;-74
2022/10/29 01:58:15;;;;;;;;;;;17.30;99.90;;;;;;4996660;28;19917;-76
2022/10/29 02:00:48;;;;;;;;;;;17.30;99.90;;;;;;4996368;28;19905;-75
2022/10/29 02:03:16;;;;;;;;;;;17.30;99.90;;;;;;4996227;28;19913;-76
2022/10/29 02:05:55;;;;;;;;;;;17.30;99.90;;;;;;4996135;28;19924;-74
2022/10/29 02:08:39;;;;;;;;;;;17.30;99.90;;;;;;4996480;28;19905;-76
2022/10/29 02:11:07;;;;;;;;;;;17.30;99.90;;;;;;4996063;28;20418;-74
2022/10/29 02:13:35;;;;;;;;;;;17.30;99.90;;;;;;4996584;28;20325;-76
2022/10/29 02:16:04;;;;;;;;;;;17.40;99.90;;;;;;4996001;28;20354;-75
2022/10/29 02:18:29;;;;;;;;;;;17.40;99.90;;;;;;4996248;28;20428;-75
2022/10/29 02:20:55;;;;;;;;;;;17.50;99.90;;;;;;4994790;28;19914;-75
2022/10/29 02:23:20;;;;;;;;;;;17.50;99.90;;;;;;4995696;28;19909;-74
2022/10/29 02:25:46;;;;;;;;;;;17.50;99.90;;;;;;4995548;28;20448;-76
2022/10/29 02:28:11;;;;;;;;;;;17.50;99.90;;;;;;4994372;28;20286;-75
2022/10/29 02:30:37;;;;;;;;;;;17.60;99.90;;;;;;4994424;28;20362;-74
2022/10/29 02:33:02;;;;;;;;;;;17.60;99.90;;;;;;4996479;28;19913;-76
2022/10/29 02:35:28;;;;;;;;;;;17.60;99.90;;;;;;4995571;28;19906;-76
2022/10/29 02:37:53;;;;;;;;;;;17.60;99.90;;;;;;4995839;28;19913;-75
2022/10/29 02:40:19;;;;;;;;;;;17.60;99.90;;;;;;4995532;28;19917;-75
2022/10/29 02:42:44;;;;;;;;;;;17.60;99.90;;;;;;4995761;28;19906;-77
2022/10/29 02:45:10;;;;;;;;;;;17.60;99.90;;;;;;4995318;28;19916;-75
2022/10/29 02:47:35;;;;;;;;;;;17.60;99.90;;;;;;4994097;28;20362;-74
2022/10/29 02:50:01;;;;;;;;;;;17.60;99.90;;;;;;4995341;28;19906;-74
2022/10/29 02:52:26;;;;;;;;;;;17.60;99.90;;;;;;4995340;28;19905;-77
2022/10/29 02:54:52;;;;;;;;;;;17.60;99.90;;;;;;4995574;28;19913;-75
2022/10/29 02:57:18;;;;;;;;;;;17.60;99.90;;;;;;4995256;28;19906;-75
2022/10/29 02:59:43;;;;;;;;;;;17.60;99.90;;;;;;4977702;28;20374;-75
2022/10/29 03:02:09;;;;;;;;;;;17.60;99.90;;;;;;4995129;28;19961;-75
2022/10/29 03:04:34;;;;;;;;;;;17.60;99.90;;;;;;4995088;28;19906;-75
2022/10/29 03:07:00;;;;;;;;;;;17.50;99.90;;;;;;4977524;28;20401;-76
2022/10/29 03:09:26;;;;;;;;;;;17.60;99.90;;;;;;4995225;28;20374;-74
2022/10/29 03:11:51;;;;;;;;;;;17.50;99.90;;;;;;4995210;28;19906;-75
2022/10/29 03:14:17;;;;;;;;;;;17.60;99.90;;;;;;4995448;28;19906;-74
2022/10/29 03:16:42;;;;;;;;;;;17.60;99.90;;;;;;4994858;28;19906;-74
2022/10/29 03:19:08;;;;;;;;;;;17.60;99.90;;;;;;4995105;28;19906;-76
2022/10/29 03:21:34;;;;;;;;;;;17.60;99.90;;;;;;4994785;28;20270;-75
2022/10/29 03:23:59;;;;;;;;;;;17.60;99.90;;;;;;4995252;28;19906;-75
2022/10/29 03:26:25;;;;;;;;;;;17.60;99.90;;;;;;4994278;28;20154;-74
2022/10/29 03:28:50;;;;;;;;;;;17.60;99.90;;;;;;4994728;28;19906;-74
2022/10/29 03:31:16;;;;;;;;;;;17.60;99.90;;;;;;4994334;28;19910;-75
2022/10/29 03:33:41;;;;;;;;;;;17.60;99.90;;;;;;4995444;28;19972;-75
2022/10/29 03:36:07;;;;;;;;;;;17.60;99.90;;;;;;4994532;28;19905;-74
2022/10/29 03:38:33;;;;;;;;;;;17.60;99.90;;;;;;4994485;28;19935;-74
2022/10/29 03:40:59;;;;;;;;;;;17.60;99.90;;;;;;4994565;28;20274;-76
2022/10/29 03:43:24;;;;;;;;;;;17.60;99.90;;;;;;4994536;28;19906;-74
2022/10/29 03:45:54;;;;;;;;;;;17.60;99.90;;;;;;4994422;28;20396;-74
2022/10/29 03:48:20;;;;;;;;;;;17.60;99.90;;;;;;4994423;28;20289;-75
2022/10/29 03:50:55;;;;;;;;;;;17.50;99.90;;;;;;4994694;28;19951;-76
2022/10/29 03:53:20;;;;;;;;;;;17.50;99.90;;;;;;4994690;28;19910;-75
2022/10/29 03:55:46;;;;;;;;;;;17.50;99.90;;;;;;4994352;28;19944;-75
2022/10/29 03:58:11;;;;;;;;;;;17.50;99.90;;;;;;4994323;28;20263;-75
2022/10/29 04:00:37;;;;;;;;;;;17.50;99.90;;;;;;4994301;28;19906;-76
2022/10/29 04:03:02;;;;;;;;;;;17.50;99.90;;;;;;4994545;28;19961;-74
2022/10/29 04:05:28;;;;;;;;;;;17.50;99.90;;;;;;4994173;28;20391;-74
2022/10/29 04:07:54;;;;;;;;;;;17.50;99.90;;;;;;4994519;28;20377;-75
2022/10/29 04:10:20;;;;;;;;;;;17.50;99.90;;;;;;4992748;28;20333;-74
2022/10/29 04:12:45;;;;;;;;;;;17.50;99.90;;;;;;4994699;28;19917;-74
2022/10/29 04:15:11;;;;;;;;;;;17.50;99.90;;;;;;4994403;28;19913;-75
2022/10/29 04:17:37;;;;;;;;;;;17.50;99.90;;;;;;4994130;28;19953;-76
2022/10/29 04:20:02;;;;;;;;;;;17.50;99.90;;;;;;4994402;28;19913;-75
2022/10/29 04:22:28;;;;;;;;;;;17.50;99.90;;;;;;4994019;28;19992;-75
2022/10/29 04:24:53;;;;;;;;;;;17.60;99.90;;;;;;4994013;28;19909;-75
2022/10/29 04:27:19;;;;;;;;;;;17.50;99.90;;;;;;4994082;28;19917;-75
2022/10/29 04:29:44;;;;;;;;;;;17.50;99.90;;;;;;4994331;28;19949;-77
2022/10/29 04:32:10;;;;;;;;;;;17.50;99.90;;;;;;4994500;28;20385;-76
2022/10/29 04:34:35;;;;;;;;;;;17.50;99.90;;;;;;4994574;28;19941;-75
2022/10/29 04:37:01;;;;;;;;;;;17.50;99.90;;;;;;4994019;28;19906;-75
2022/10/29 04:39:26;;;;;;;;;;;17.50;99.90;;;;;;4994275;28;20262;-76
2022/10/29 04:41:52;;;;;;;;;;;17.50;99.90;;;;;;4976549;28;20040;-75
2022/10/29 04:44:18;;;;;;;;;;;17.50;99.90;;;;;;4996237;28;20282;-76
2022/10/29 04:46:44;;;;;;;;;;;17.50;99.90;;;;;;4997602;28;19968;-74
2022/10/29 04:49:09;;;;;;;;;;;17.50;99.90;;;;;;4998148;28;20358;-74
2022/10/29 04:51:35;;;;;;;;;;;17.50;99.90;;;;;;4997540;28;19959;-73
2022/10/29 04:54:00;;;;;;;;;;;17.40;99.90;;;;;;4997495;28;19905;-76
2022/10/29 04:56:27;;;;;;;;;;;17.40;99.90;;;;;;4997743;28;19912;-73
2022/10/29 04:58:53;;;;;;;;;;;17.40;99.90;;;;;;4997411;28;19909;-75
2022/10/29 05:01:18;;;;;;;;;;;17.40;99.90;;;;;;4997919;28;20314;-75
2022/10/29 05:03:44;;;;;;;;;;;17.30;99.90;;;;;;4997325;28;19906;-74
2022/10/29 05:06:09;;;;;;;;;;;17.30;99.90;;;;;;4997220;28;20366;-75
2022/10/29 05:08:35;;;;;;;;;;;17.20;99.90;;;;;;4997222;28;19937;-75
2022/10/29 05:11:02;;;;;;;;;;;17.20;99.90;;;;;;4997484;28;19906;-74
2022/10/29 05:13:27;;;;;;;;;;;17.20;99.90;;;;;;4997145;28;19906;-75
2022/10/29 05:15:53;;;;;;;;;;;17.20;99.90;;;;;;4997103;28;19956;-74
2022/10/29 05:18:19;;;;;;;;;;;17.20;99.90;;;;;;4979581;28;19906;-75
2022/10/29 05:20:44;;;;;;;;;;;17.20;99.90;;;;;;4997055;28;20025;-74
2022/10/29 05:23:10;;;;;;;;;;;17.10;99.90;;;;;;4996930;28;20290;-75
2022/10/29 05:25:36;;;;;;;;;;;17.20;99.90;;;;;;4996730;28;19945;-74
2022/10/29 05:28:02;;;;;;;;;;;17.20;99.90;;;;;;4996923;28;19912;-74
2022/10/29 05:30:27;;;;;;;;;;;17.10;99.90;;;;;;4997174;28;19906;-74
2022/10/29 05:32:53;;;;;;;;;;;17.10;99.90;;;;;;4997369;28;19912;-75
2022/10/29 05:35:18;;;;;;;;;;;17.10;99.90;;;;;;4997050;28;19906;-75
2022/10/29 05:37:49;;;;;;;;;;;17.10;99.90;;;;;;4996747;28;19913;-73
2022/10/29 05:40:15;;;;;;;;;;;17.10;99.90;;;;;;4997304;28;20329;-74
2022/10/29 05:42:43;;;;;;;;;;;17.10;99.90;;;;;;4996694;28;19945;-76
2022/10/29 05:45:08;;;;;;;;;;;17.10;99.90;;;;;;4999559;28;20370;-75
2022/10/29 05:47:34;;;;;;;;;;;17.10;99.90;;;;;;4999502;28;19912;-76
2022/10/29 05:49:59;;;;;;;;;;;17.20;99.90;;;;;;4998664;28;19912;-76
2022/10/29 05:52:25;;;;;;;;;;;17.10;99.90;;;;;;4996785;28;20070;-76
2022/10/29 05:54:50;;;;;;;;;;;17.10;99.90;;;;;;4994866;28;20346;-76
2022/10/29 05:57:16;;;;;;;;;;;17.10;99.90;;;;;;4996345;28;19917;-77
2022/10/29 05:59:41;;;;;;;;;;;17.10;99.90;;;;;;4996080;28;19913;-74
2022/10/29 06:02:08;;;;;;;;;;;17.10;99.90;;;;;;4996295;28;19913;-76
2022/10/29 06:04:33;;;;;;;;;;;17.00;99.90;;;;;;4996538;28;19952;-75
2022/10/29 06:06:59;;;;;;;;;;;17.00;99.90;;;;;;4996092;28;20004;-75
2022/10/29 06:09:24;;;;;;;;;;;17.00;99.90;;;;;;4996170;28;20388;-74
2022/10/29 06:11:50;;;;;;;;;;;17.00;99.90;;;;;;4978648;28;20473;-75
2022/10/29 06:14:15;;;;;;;;;;;17.00;99.90;;;;;;4996331;28;19916;-75
2022/10/29 06:16:41;;;;;;;;;;;17.00;99.90;;;;;;4996010;28;19905;-75
2022/10/29 06:19:07;;;;;;;;;;;17.00;99.90;;;;;;4996511;28;19956;-75
2022/10/29 06:21:33;;;;;;;;;;;16.90;99.90;;;;;;4995933;28;20366;-75
2022/10/29 06:23:58;;;;;;;;;;;17.00;99.90;;;;;;4995822;28;20362;-75
2022/10/29 06:26:24;;;;;;;;;;;16.90;99.90;;;;;;4995365;28;19976;-75
2022/10/29 06:28:50;;;;;;;;;;;16.90;99.90;;;;;;4995781;28;19912;-75
2022/10/29 06:31:16;;;;;;;;;;;16.90;99.90;;;;;;4996032;28;20000;-75
2022/10/29 06:33:41;;;;;;;;;;;17.00;99.90;;;;;;4996193;28;20388;-76
2022/10/29 06:36:07;;;;;;;;;;;17.00;99.90;;;;;;4995608;28;19910;-75
2022/10/29 06:38:32;;;;;;;;;;;17.00;99.90;;;;;;4995586;28;19905;-75
2022/10/29 06:40:58;;;;;;;;;;;17.00;99.90;;;;;;4996102;28;19952;-76
2022/10/29 06:43:24;;;;;;;;;;;17.00;99.90;;;;;;4995787;28;20305;-74
2022/10/29 06:45:49;;;;;;;;;;;17.00;99.90;;;;;;4995371;28;19917;-74
2022/10/29 06:48:15;;;;;;;;;;;17.00;99.90;;;;;;4995411;28;19906;-76
2022/10/29 06:50:40;;;;;;;;;;;17.00;99.90;;;;;;4995608;28;19906;-75
2022/10/29 06:53:08;;;;;;;;;;;17.00;99.90;;;;;;4995301;28;19910;-76
2022/10/29 06:55:34;;;;;;;;;;;17.00;99.90;;;;;;4995280;28;20351;-74
2022/10/29 06:58:19;;;;;;;;;;;17.00;99.90;;;;;;4977800;28;20335;-75
2022/10/29 07:00:45;;;;;;;;;;;17.00;99.90;;;;;;4995046;28;19905;-75
2022/10/29 07:03:12;;;;;;;;;;;17.00;99.90;;;;;;4995083;28;19906;-75
2022/10/29 07:05:37;;;;;;;;;;;17.00;99.90;;;;;;4994972;28;19909;-77
2022/10/29 07:08:03;;;;;;;;;;;17.00;99.90;;;;;;4994685;28;19956;-74
2022/10/29 07:10:29;;;;;;;;;;;17.00;99.90;;;;;;4995521;28;19960;-76
2022/10/29 07:12:55;;;;;;;;;;;17.00;99.90;;;;;;4994940;28;20326;-74
2022/10/29 07:15:20;;;;;;;;;;;17.00;99.90;;;;;;4993659;28;19952;-75
2022/10/29 07:17:55;;;;;;;;;;;17.00;99.90;;;;;;4977412;28;19910;-76
2022/10/29 07:20:21;;;;;;;;;;;17.00;99.90;;;;;;4995102;28;19906;-75
2022/10/29 07:22:46;;;;;;;;;;;17.10;99.90;;;;;;4994720;28;19928;-76
2022/10/29 07:25:12;;;;;;;;;;;17.10;99.90;;;;;;4977030;28;19917;-75
2022/10/29 07:27:38;;;;;;;;;;;17.10;99.90;;;;;;4994967;28;19910;-76
2022/10/29 07:30:03;;;;;;;;;;;17.10;99.90;;;;;;4994666;28;20409;-76
2022/10/29 07:32:29;;;;;;;;;;;17.10;99.90;;;;;;4995094;28;19992;-73
2022/10/29 07:34:54;;;;;;;;;;;17.10;99.90;;;;;;4995073;28;19945;-75
2022/10/29 07:37:20;;;;;;;;;;;17.10;99.90;;;;;;4994587;28;20292;-75
2022/10/29 07:39:45;;;;;;;;;;;17.20;99.90;;;;;;4994578;28;19917;-76
2022/10/29 07:42:11;;;;;;;;;;;17.20;99.90;;;;;;4994830;28;19906;-76
2022/10/29 07:44:36;;;;;;;;;;;17.20;99.90;;;;;;4994557;28;20366;-76
2022/10/29 07:47:02;;;;;;;;;;;17.20;99.90;;;;;;4994415;28;19916;-76
2022/10/29 07:49:27;;;;;;;;;;;17.20;99.90;;;;;;4994705;28;19906;-74
2022/10/29 07:51:53;;;;;;;;;;;17.30;99.90;;;;;;4994362;28;19905;-74
2022/10/29 07:54:18;;;;;;;;;;;17.30;99.90;;;;;;4994933;28;19905;-75
2022/10/29 07:56:44;;;;;;;;;;;17.40;99.90;;;;;;4994352;28;19913;-75
2022/10/29 07:59:13;;;;;;;;;;;17.50;99.90;;;;;;4994563;28;20281;-75
2022/10/29 08:01:38;;;;;;;;;;;17.60;99.90;;;;;;4994248;28;19992;-75
2022/10/29 08:04:04;;;;;;;;;;;17.70;99.90;;;;;;4994282;28;19910;-75
2022/10/29 08:06:29;;;;;;;;;;;17.80;99.90;;;;;;4994451;28;19910;-75
2022/10/29 08:08:56;;;;;;;;;;;17.80;99.90;;;;;;4994284;28;19906;-76
2022/10/29 08:11:21;;;;;;;;;;;17.90;99.90;;;;;;4994770;28;19906;-75
2022/10/29 08:13:47;;;;;;;;;;;18.00;99.90;;;;;;4994196;28;19905;-75
2022/10/29 08:16:13;;;;;;;;;;;18.00;99.90;;;;;;4994218;28;19905;-76
2022/10/29 08:18:38;;;;;;;;;;;18.10;99.90;;;;;;4996926;28;19905;-76
2022/10/29 08:21:04;;;;;;;;;;;18.10;99.90;;;;;;4998220;28;20349;-75
2022/10/29 08:23:29;;;;;;;;;;;18.20;99.90;;;;;;4998726;28;19948;-75
2022/10/29 08:25:56;;;;;;;;;;;18.20;99.90;;;;;;4997828;28;20401;-76
2022/10/29 08:28:21;;;;;;;;;;;18.30;99.90;;;;;;4997914;28;19921;-76
2022/10/29 08:30:50;;;;;;;;;;;18.30;99.90;;;;;;4998322;28;19905;-76
2022/10/29 08:33:16;;;;;;;;;;;18.30;99.90;;;;;;4998669;28;19905;-75
2022/10/29 08:35:41;;;;;;;;;;;18.30;99.90;;;;;;4997863;28;20489;-75
2022/10/29 08:38:07;;;;;;;;;;;18.30;99.90;;;;;;4998102;28;20416;-75
2022/10/29 08:40:51;;;;;;;;;;;18.40;99.90;;;;;;4997808;28;19999;-75
2022/10/29 08:43:16;;;;;;;;;;;18.50;99.90;;;;;;4997629;28;19916;-75
2022/10/29 08:45:46;;;;;;;;;;;18.60;99.90;;;;;;4997562;28;19910;-74
2022/10/29 08:48:15;;;;;;;;;;;18.60;99.90;;;;;;4997615;28;19960;-76
2022/10/29 08:50:43;;;;;;;;;;;18.80;99.90;;;;;;4997822;28;20362;-76
2022/10/29 08:53:15;;;;;;;;;;;18.80;99.90;;;;;;4997548;28;19912;-75
2022/10/29 08:55:41;;;;;;;;;;;18.80;99.90;;;;;;4998139;28;19906;-74
2022/10/29 08:58:16;;;;;;;;;;;18.80;99.90;;;;;;4997573;28;20286;-75
2022/10/29 09:00:42;;;;;;;;;;;18.80;99.90;;;;;;4998010;28;19913;-74
2022/10/29 09:03:11;;;;;;;;;;;18.80;99.90;;;;;;4997335;28;19905;-74
2022/10/29 09:05:49;;;;;;;;;;;18.90;99.90;;;;;;4997449;28;19960;-74
2022/10/29 09:08:24;;;;;;;;;;;19.00;99.90;;;;;;4997479;28;19992;-74
2022/10/29 09:10:55;;;;;;;;;;;19.00;99.90;;;;;;4997504;28;19993;-74
2022/10/29 09:13:33;;;;;;;;;;;19.10;99.90;;;;;;4997419;28;19906;-74
2022/10/29 09:15:59;;;;;;;;;;;19.20;99.90;;;;;;4980321;28;20358;-79
2022/10/29 09:18:41;;;;;;;;;;;19.30;99.90;;;;;;4996921;28;19913;-80
2022/10/29 09:21:16;;;;;;;;;;;19.40;99.90;;;;;;4997456;28;19996;-77
2022/10/29 09:24:02;;;;;;;;;;;19.40;99.90;;;;;;4997238;28;19910;-76
2022/10/29 09:26:35;;;;;;;;;;;19.20;99.90;;;;;;4996017;28;20328;-74
2022/10/29 09:29:20;;;;;;;;;;;19.20;99.90;;;;;;4996867;28;19905;-75
2022/10/29 09:32:18;;;;;;;;;;;19.10;99.90;;;;;;4997023;28;19953;-76
2022/10/29 09:34:47;;;;;;;;;;;19.00;99.90;;;;;;4953831;28;19913;-74
2022/10/29 09:37:21;;;;;;;;;;;19.00;99.90;;;;;;4996833;28;19960;-74
2022/10/29 09:39:46;;;;;;;;;;;19.00;99.90;;;;;;4979218;28;19909;-73
2022/10/29 09:42:34;;;;;;;;;;;19.00;99.90;;;;;;4997310;28;20368;-76
2022/10/29 09:45:01;;;;;;;;;;;19.10;99.90;;;;;;4996774;28;19906;-74
2022/10/29 09:47:33;;;;;;;;;;;19.20;99.90;;;;;;4996624;28;19906;-75
2022/10/29 09:50:10;;;;;;;;;;;19.30;99.90;;;;;;4996530;28;19906;-75
2022/10/29 09:52:38;;;;;;;;;;;19.50;99.90;;;;;;4996572;28;20074;-76
2022/10/29 09:55:05;;;;;;;;;;;19.50;99.90;;;;;;4996731;28;19906;-75
2022/10/29 09:57:32;;;;;;;;;;;19.60;99.90;;;;;;4978961;28;20405;-75
2022/10/29 10:00:00;;;;;;;;;;;19.60;99.90;;;;;;4996589;28;19913;-75
2022/10/29 10:02:32;;;;;;;;;;;19.60;99.90;;;;;;4996474;28;20400;-76
2022/10/29 10:05:13;;;;;;;;;;;19.70;99.90;;;;;;4996852;28;19912;-73
2022/10/29 10:07:39;;;;;;;;;;;19.70;99.90;;;;;;4996266;28;20325;-75
2022/10/29 10:10:05;;;;;;;;;;;19.80;99.90;;;;;;4996284;28;19906;-74
2022/10/29 10:12:37;;;;;;;;;;;19.80;99.90;;;;;;4996508;28;19988;-75
2022/10/29 10:15:05;;;;;;;;;;;19.90;99.90;;;;;;4996046;28;19913;-75
2022/10/29 10:17:51;;;;;;;;;;;19.90;99.90;;;;;;4996060;28;19906;-75
2022/10/29 10:20:24;;;;;;;;;;;20.10;99.90;;;;;;4995512;28;20353;-74
2022/10/29 10:22:50;;;;;;;;;;;20.40;99.90;;;;;;4996018;28;19906;-74
2022/10/29 10:25:36;;;;;;;;;;;20.70;99.90;;;;;;4996143;28;19922;-76
2022/10/29 10:28:02;;;;;;;;;;;21.00;99.90;;;;;;4995366;28;19905;-75
2022/10/29 10:30:27;;;;;;;;;;;21.20;99.90;;;;;;4996171;28;19906;-77
2022/10/29 10:32:53;;;;;;;;;;;21.40;99.90;;;;;;4995992;28;19928;-75
2022/10/29 10:35:26;;;;;;;;;;;21.50;99.90;;;;;;4995414;28;20385;-75
2022/10/29 10:37:51;;;;;;;;;;;21.50;99.90;;;;;;4995691;28;19913;-77
2022/10/29 10:40:21;;;;;;;;;;;21.70;99.90;;;;;;4995646;28;19906;-77
2022/10/29 10:42:46;;;;;;;;;;;21.40;99.90;;;;;;5010492;28;20237;-76
2022/10/29 10:45:16;;;;;;;;;;;21.20;99.90;;;;;;5011327;28;19937;-76
2022/10/29 10:47:49;;;;;;;;;;;21.10;99.90;;;;;;5005334;28;19905;-75
2022/10/29 10:50:19;;;;;;;;;;;21.10;99.90;;;;;;4995856;28;20263;-76
2022/10/29 10:52:45;;;;;;;;;;;21.00;99.90;;;;;;4978248;28;20278;-74
2022/10/29 10:55:21;;;;;;;;;;;20.90;99.90;;;;;;4995851;28;20414;-76
2022/10/29 10:57:52;;;;;;;;;;;20.80;99.90;;;;;;4978325;28;19910;-75
2022/10/29 11:00:19;;;;;;;;;;;20.80;99.90;;;;;;4977892;28;19906;-75
2022/10/29 11:02:56;;;;;;;;;;;20.80;99.90;;;;;;5112703;27;19912;-77
2022/10/29 11:05:33;;;;;;;;;;;20.80;99.90;;;;;;5112609;28;19934;-77
2022/10/29 11:08:11;;;;;;;;;;;20.70;99.90;;;;;;5145015;27;20299;-76
2022/10/29 11:10:50;;;;;;;;;;;20.70;99.90;;;;;;5112042;28;20375;-77
2022/10/29 11:13:18;;;;;;;;;;;20.60;99.90;;;;;;5112260;28;20002;-77
2022/10/29 11:15:48;;;;;;;;;;;20.60;99.90;;;;;;5111759;28;19919;-77
2022/10/29 11:18:19;;;;;;;;;;;20.60;99.90;;;;;;5112322;28;19912;-78
2022/10/29 11:20:49;;;;;;;;;;;20.60;99.90;;;;;;5111692;28;19912;-78
2022/10/29 11:23:23;;;;;;;;;;;20.50;99.90;;;;;;5111781;28;20283;-77
2022/10/29 11:25:53;;;;;;;;;;;20.60;99.90;;;;;;5112048;28;19957;-78
2022/10/29 11:28:38;;;;;;;;;;;20.50;99.90;;;;;;5110286;28;19908;-76
2022/10/29 11:31:10;;;;;;;;;;;20.60;99.90;;;;;;5111014;28;19912;-77
2022/10/29 11:33:38;;;;;;;;;;;20.50;99.90;;;;;;5111882;28;19916;-77
2022/10/29 11:36:17;;;;;;;;;;;20.50;99.90;;;;;;5111315;28;19954;-76
2022/10/29 11:38:45;;;;;;;;;;;20.60;99.90;;;;;;5112334;28;19944;-78
2022/10/29 11:41:30;;;;;;;;;;;20.60;99.90;;;;;;5111313;28;19989;-78
2022/10/29 11:43:55;;;;;;;;;;;20.50;99.90;;;;;;5111937;28;19908;-78
2022/10/29 11:46:36;;;;;;;;;;;20.50;99.90;;;;;;5111129;28;19957;-76
2022/10/29 11:49:10;;;;;;;;;;;20.50;99.90;;;;;;5111545;28;19995;-77
2022/10/29 11:51:41;;;;;;;;;;;20.50;99.90;;;;;;5111304;28;19908;-75
2022/10/29 11:54:07;;;;;;;;;;;20.50;99.90;;;;;;5111727;28;19914;-78
2022/10/29 11:56:37;;;;;;;;;;;20.50;99.90;;;;;;5110673;28;20002;-78
2022/10/29 11:59:18;;;;;;;;;;;20.50;99.90;;;;;;5111843;28;19908;-77
2022/10/29 12:02:12;;;;;;;;;;;20.50;99.90;;;;;;5121828;28;20010;-78
2022/10/29 12:04:45;;;;;;;;;;;20.60;99.90;;;;;;5131933;28;20355;-77
2022/10/29 12:07:29;;;;;;;;;;;20.60;99.90;;;;;;5131196;28;19908;-79
2022/10/29 12:09:57;;;;;;;;;;;20.60;99.90;;;;;;5131614;28;19912;-78
2022/10/29 12:12:28;;;;;;;;;;;20.60;99.90;;;;;;5127467;28;19931;-78
2022/10/29 12:15:03;;;;;;;;;;;20.70;99.90;;;;;;5117058;28;19955;-80
2022/10/29 12:17:42;;;;;;;;;;;20.60;99.90;;;;;;5117020;28;19970;-80
2022/10/29 12:20:08;;;;;;;;;;;20.60;99.90;;;;;;5117190;28;19961;-82
2022/10/29 12:22:37;;;;;;;;;;;20.70;99.90;;;;;;5116776;28;19919;-79
2022/10/29 12:25:07;;;;;;;;;;;20.70;99.90;;;;;;5117477;28;19908;-78
2022/10/29 12:27:38;;;;;;;;;;;20.80;99.90;;;;;;5117377;28;19908;-76
2022/10/29 12:30:04;;;;;;;;;;;20.80;99.90;;;;;;5117086;28;19908;-75
2022/10/29 12:32:30;;;;;;;;;;;20.80;99.90;;;;;;5116671;28;19908;-76
2022/10/29 12:35:14;;;;;;;;;;;20.90;99.90;;;;;;5116211;28;19915;-77
2022/10/29 12:37:47;;;;;;;;;;;21.00;99.90;;;;;;5116205;28;19907;-77
2022/10/29 12:40:16;;;;;;;;;;;21.10;99.90;;;;;;5116211;28;19915;-77
2022/10/29 12:42:41;;;;;;;;;;;21.20;99.90;;;;;;5116047;28;19915;-76
2022/10/29 12:45:19;;;;;;;;;;;21.20;99.90;;;;;;5116130;28;19908;-78
2022/10/29 12:47:51;;;;;;;;;;;21.20;99.90;;;;;;5116459;28;19943;-77
2022/10/29 12:50:19;;;;;;;;;;;21.20;99.90;;;;;;5116716;28;20277;-76
2022/10/29 12:52:48;;;;;;;;;;;21.20;99.90;;;;;;5116351;28;19915;-76
2022/10/29 12:55:15;;;;;;;;;;;21.20;99.90;;;;;;5116602;28;20425;-77
2022/10/29 12:57:40;;;;;;;;;;;21.20;99.90;;;;;;5116257;28;19964;-76
2022/10/29 13:00:26;;;;;;;;;;;21.30;99.90;;;;;;5116226;28;19908;-77
2022/10/29 13:02:52;;;;;;;;;;;21.30;99.90;;;;;;5075773;28;19959;-76
2022/10/29 13:05:17;;;;;;;;;;;21.30;99.90;;;;;;5075819;28;19908;-77
2022/10/29 13:07:46;;;;;;;;;;;21.40;99.90;;;;;;5075754;28;20260;-77
2022/10/29 13:10:24;;;;;;;;;;;21.50;99.90;;;;;;5075426;28;19908;-77
2022/10/29 13:12:52;;;;;;;;;;;21.60;99.90;;;;;;5075709;28;19915;-77
2022/10/29 13:15:19;;;;;;;;;;;21.70;99.90;;;;;;5075418;28;19958;-76
2022/10/29 13:17:47;;;;;;;;;;;21.70;99.90;;;;;;5075589;28;19908;-77
2022/10/29 13:20:19;;;;;;;;;;;21.80;99.90;;;;;;5075241;28;20086;-77
2022/10/29 13:22:58;;;;;;;;;;;21.90;99.90;;;;;;5075030;28;19938;-77
2022/10/29 13:25:43;;;;;;;;;;;21.90;99.90;;;;;;5074933;28;19909;-76
2022/10/29 13:28:09;;;;;;;;;;;22.00;99.90;;;;;;5075380;28;20422;-77
2022/10/29 13:30:35;;;;;;;;;;;22.00;99.90;;;;;;5075283;28;19908;-77
2022/10/29 13:33:22;;;;;;;;;;;22.00;99.90;;;;;;5074929;28;19914;-77
2022/10/29 13:35:56;;;;;;;;;;;22.00;99.90;;;;;;5074892;28;19909;-78
2022/10/29 13:38:30;;;;;;;;;;;21.90;99.90;;;;;;5074835;28;19912;-75
2022/10/29 13:41:04;;;;;;;;;;;21.80;99.90;;;;;;5074647;28;19919;-77
2022/10/29 13:43:30;;;;;;;;;;;21.70;99.90;;;;;;5073143;28;20346;-76
2022/10/29 13:46:19;;;;;;;;;;;21.70;99.90;;;;;;5075284;28;19970;-78
2022/10/29 13:48:45;;;;;;;;;;;21.90;99.90;;;;;;5026869;28;20296;-76
2022/10/29 13:51:13;;;;;;;;;;;22.10;99.90;;;;;;5074672;28;19909;-77
2022/10/29 13:53:42;;;;;;;;;;;22.10;99.90;;;;;;5074561;28;20002;-77
2022/10/29 13:56:09;;;;;;;;;;;22.00;99.90;;;;;;5074737;28;19909;-78
2022/10/29 13:58:35;;;;;;;;;;;21.90;99.90;;;;;;5074450;28;20110;-77
2022/10/29 14:01:06;;;;;;;;;;;21.80;99.90;;;;;;5084340;28;20299;-77
2022/10/29 14:03:31;;;;;;;;;;;21.80;99.90;;;;;;5115564;28;19930;-77
2022/10/29 14:05:59;;;;;;;;;;;21.90;99.90;;;;;;5115241;28;19908;-76
2022/10/29 14:08:37;;;;;;;;;;;21.90;99.90;;;;;;5115163;28;19915;-77
2022/10/29 14:11:07;;;;;;;;;;;21.90;99.90;;;;;;5114908;28;20369;-76
2022/10/29 14:13:53;;;;;;;;;;;21.90;99.90;;;;;;5115369;28;20366;-78
2022/10/29 14:16:31;;;;;;;;;;;21.90;99.90;;;;;;5114116;28;19990;-77
2022/10/29 14:18:57;;;;;;;;;;;21.90;99.90;;;;;;5114665;28;19931;-75
2022/10/29 14:21:24;;;;;;;;;;;21.80;99.90;;;;;;5114613;28;20375;-78
2022/10/29 14:23:55;;;;;;;;;;;21.80;99.90;;;;;;5114542;28;20417;-76
2022/10/29 14:26:23;;;;;;;;;;;21.70;99.90;;;;;;5115063;28;19908;-77